Dades meteomassalio
Diari Summary for Juliol 5, 2017 Units:  English    Metric   Both
« Previous Day
Next Day »
Diari Semanal Mensual Anual Personalitzat
  Maxima: Minima: Mijana:
Temperatura: TemperatureC °F 14.1 °F 24.6 °F
Rosada: DewpointC °F 9.3 °F 14 °F
Humitat: Humidity % 37 % 53 %
Velocitat del vent: WindSpeedKMH mph 0.0 mph 9.3 mph
Racha vent: WindSpeedGustKMH mph - -
Vent:- - ESE
Pressio: PressurehPa in 1011.4 in -
Pluja: 0.0 in    
Historical Graphs
 
 
Tabular Data for Juliol 5, 2017
Time Temperature Dew Point Pressure Wind Wind Speed Wind Gust Humidity Rainfall Rate (Hourly) solar Conditions
TemperatureC °F DewpointC °F PressurehPa in Calm     Humidity % HourlyPrecipMM in SolarRadiationWatts/m^2 W/m2 Conditions
00:01 22.4 °F 12.1 °F 1015.1 in Calm     52 % 0.0 in 0.0 W/m2 CLR
00:02 22.4 °F 12.1 °F 1015.1 in Calm     52 % 0.0 in 0.0 W/m2 CLR
00:07 22.4 °F 12.3 °F 1015.1 in Calm     53 % 0.0 in 0.0 W/m2 CLR
00:12 22.3 °F 12.2 °F 1015.5 in Calm     53 % 0.0 in 0.0 W/m2 CLR
00:14 22.2 °F 12.2 °F 1015.5 in Calm     53 % 0.0 in 0.0 W/m2 CLR
00:19 22.0 °F 11.7 °F 1015.5 in Calm     52 % 0.0 in 0.0 W/m2 CLR
00:24 21.7 °F 11.7 °F 1015.1 in Calm     53 % 0.0 in 0.0 W/m2 CLR
00:29 21.5 °F 11.8 °F 1015.1 in Calm     54 % 0.0 in 0.0 W/m2 CLR
00:34 21.3 °F 11.9 °F 1015.5 in Calm     55 % 0.0 in 0.0 W/m2 CLR
00:39 21.2 °F 11.8 °F 1015.5 in Calm     55 % 0.0 in 0.0 W/m2 CLR
00:44 21.3 °F 11.6 °F 1015.1 in Calm     54 % 0.0 in 0.0 W/m2 CLR
00:49 21.3 °F 11.6 °F 1015.5 in Calm     54 % 0.0 in 0.0 W/m2 CLR
00:54 21.3 °F 11.3 °F 1015.1 in Calm     53 % 0.0 in 0.0 W/m2 CLR
00:59 21.2 °F 11.3 °F 1015.1 in Calm     53 % 0.0 in 0.0 W/m2 CLR
01:04 21.2 °F 11.3 °F 1015.1 in Calm     53 % 0.0 in 0.0 W/m2 CLR
01:09 21.1 °F 10.9 °F 1015.1 in Calm     52 % 0.0 in 0.0 W/m2 CLR
01:14 21.0 °F 11.1 °F 1015.1 in Calm     53 % 0.0 in 0.0 W/m2 CLR
01:19 20.9 °F 11.0 °F 1015.1 in Calm     53 % 0.0 in 0.0 W/m2 CLR
01:20 20.9 °F 10.9 °F 1015.5 in Calm     53 % 0.0 in 0.0 W/m2 CLR
01:25 20.6 °F 11.0 °F 1015.5 in Calm     54 % 0.0 in 0.0 W/m2 CLR
01:31 20.3 °F 10.7 °F 1015.1 in Calm     54 % 0.0 in 0.0 W/m2 CLR
01:36 19.9 °F 10.8 °F 1015.1 in Calm     56 % 0.0 in 0.0 W/m2 CLR
01:41 19.8 °F 11.3 °F 1015.5 in Calm     58 % 0.0 in 0.0 W/m2 CLR
01:46 19.8 °F 11.3 °F 1015.1 in Calm     58 % 0.0 in 0.0 W/m2 CLR
01:51 19.9 °F 11.6 °F 1015.1 in Calm     59 % 0.0 in 0.0 W/m2 CLR
01:56 19.9 °F 11.4 °F 1015.1 in Calm     58 % 0.0 in 0.0 W/m2 CLR
02:01 19.8 °F 11.3 °F 1015.5 in Calm     58 % 0.0 in 0.0 W/m2 CLR
02:06 19.6 °F 10.6 °F 1015.5 in Calm     56 % 0.0 in 0.0 W/m2 CLR
02:11 19.3 °F 12.1 °F 1015.1 in Calm     63 % 0.0 in 0.0 W/m2 CLR
02:16 19.6 °F 11.3 °F 1015.1 in Calm     59 % 0.0 in 0.0 W/m2 CLR
02:21 19.8 °F 12.6 °F 1015.1 in Calm     63 % 0.0 in 0.0 W/m2 CLR
02:26 19.8 °F 11.6 °F 1015.1 in Calm     59 % 0.0 in 0.0 W/m2 CLR
02:31 19.6 °F 11.8 °F 1015.1 in Calm     61 % 0.0 in 0.0 W/m2 CLR
02:36 19.4 °F 12.7 °F 1015.1 in Calm     65 % 0.0 in 0.0 W/m2 CLR
02:41 19.3 °F 12.6 °F 1015.1 in Calm     65 % 0.0 in 0.0 W/m2 CLR
02:42 19.3 °F 12.3 °F 1015.1 in Calm     64 % 0.0 in 0.0 W/m2 CLR
02:47 19.3 °F 13.0 °F 1015.1 in Calm     67 % 0.0 in 0.0 W/m2 CLR
02:52 19.3 °F 13.0 °F 1015.1 in Calm     67 % 0.0 in 0.0 W/m2 CLR
02:57 18.9 °F 10.8 °F 1015.1 in Calm     59 % 0.0 in 0.0 W/m2 CLR
03:02 18.6 °F 10.2 °F 1015.1 in Calm     58 % 0.0 in 0.0 W/m2 CLR
03:07 18.3 °F 10.4 °F 1015.1 in Calm     60 % 0.0 in 0.0 W/m2 CLR
03:12 18.1 °F 10.7 °F 1015.1 in Calm     62 % 0.0 in 0.0 W/m2 CLR
03:17 17.9 °F 10.8 °F 1015.1 in Calm     63 % 0.0 in 0.0 W/m2 CLR
03:18 17.9 °F 10.7 °F 1015.1 in Calm     63 % 0.0 in 0.0 W/m2 CLR
03:23 17.8 °F 11.3 °F 1015.1 in Calm     66 % 0.0 in 0.0 W/m2 CLR
03:28 17.7 °F 11.4 °F 1015.1 in Calm     67 % 0.0 in 0.0 W/m2 CLR
03:33 17.6 °F 10.7 °F 1015.1 in Calm     64 % 0.0 in 0.0 W/m2 CLR
03:38 17.3 °F 10.0 °F 1015.1 in Calm     62 % 0.0 in 0.0 W/m2 CLR
03:43 17.2 °F 10.1 °F 1015.1 in Calm     63 % 0.0 in 0.0 W/m2 CLR
03:48 16.8 °F 9.7 °F 1015.1 in Calm     63 % 0.0 in 0.0 W/m2 CLR
03:53 16.6 °F 10.2 °F 1015.1 in Calm     66 % 0.0 in 0.0 W/m2 CLR
03:58 16.5 °F 10.6 °F 1015.1 in Calm     68 % 0.0 in 0.0 W/m2 CLR
04:03 16.4 °F 10.1 °F 1015.1 in Calm     66 % 0.0 in 0.0 W/m2 CLR
04:08 16.3 °F 9.9 °F 1015.1 in Calm     66 % 0.0 in 0.0 W/m2 CLR
04:13 16.2 °F 9.8 °F 1015.1 in Calm     66 % 0.0 in 0.0 W/m2 CLR
04:18 16.1 °F 9.9 °F 1015.1 in Calm     67 % 0.0 in 0.0 W/m2 CLR
04:23 15.9 °F 10.0 °F 1015.1 in Calm     68 % 0.0 in 0.0 W/m2 CLR
04:28 15.8 °F 9.9 °F 1015.1 in Calm     68 % 0.0 in 0.0 W/m2 CLR
04:33 15.7 °F 10.1 °F 1015.1 in Calm     69 % 0.0 in 0.0 W/m2 CLR
04:38 15.6 °F 9.7 °F 1015.1 in Calm     68 % 0.0 in 0.0 W/m2 CLR
04:43 15.6 °F 9.7 °F 1015.1 in Calm     68 % 0.0 in 0.0 W/m2 CLR
04:44 15.5 °F 9.6 °F 1015.1 in Calm     68 % 0.0 in 0.0 W/m2 CLR
04:49 15.4 °F 9.8 °F 1015.1 in Calm     69 % 0.0 in 0.0 W/m2 CLR
04:54 15.4 °F 9.7 °F 1015.1 in Calm     69 % 0.0 in 0.0 W/m2 CLR
04:59 15.3 °F 9.7 °F 1015.1 in Calm     69 % 0.0 in 0.0 W/m2 CLR
05:04 15.2 °F 9.6 °F 1015.1 in Calm     69 % 0.0 in 0.0 W/m2 CLR
05:09 15.1 °F 9.4 °F 1015.1 in Calm     69 % 0.0 in 0.0 W/m2 CLR
05:14 15.1 °F 9.6 °F 1015.1 in Calm     70 % 0.0 in 0.0 W/m2 CLR
05:19 15.0 °F 9.6 °F 1014.8 in Calm     70 % 0.0 in 0.0 W/m2 CLR
05:24 14.9 °F 9.4 °F 1015.1 in Calm     70 % 0.0 in 0.0 W/m2 CLR
05:29 14.7 °F 9.5 °F 1014.8 in Calm     71 % 0.0 in 0.0 W/m2 CLR
05:34 14.6 °F 9.6 °F 1014.8 in Calm     72 % 0.0 in 0.0 W/m2 CLR
05:39 14.6 °F 9.6 °F 1014.8 in Calm     72 % 0.0 in 0.0 W/m2 CLR
05:44 14.6 °F 9.6 °F 1014.8 in Calm     72 % 0.0 in 0.0 W/m2 CLR
05:49 14.5 °F 9.7 °F 1014.8 in Calm     73 % 0.0 in 0.0 W/m2 CLR
05:54 14.4 °F 9.7 °F 1014.8 in Calm     73 % 0.0 in 0.0 W/m2 CLR
05:59 14.4 °F 9.6 °F 1014.8 in Calm     73 % 0.0 in 0.0 W/m2 CLR
06:04 14.3 °F 9.6 °F 1014.8 in Calm     73 % 0.0 in 0.0 W/m2 CLR
06:09 14.3 °F 9.5 °F 1015.1 in Calm     73 % 0.0 in 0.0 W/m2 CLR
06:14 14.3 °F 9.5 °F 1015.1 in Calm     73 % 0.0 in 0.0 W/m2 CLR
06:19 14.2 °F 9.7 °F 1015.1 in Calm     74 % 0.0 in 0.0 W/m2 CLR
06:24 14.2 °F 9.6 °F 1015.1 in Calm     74 % 0.0 in 0.0 W/m2 OVC
06:29 14.2 °F 9.8 °F 1015.1 in Calm     75 % 0.0 in 0.0 W/m2 OVC
06:34 14.3 °F 9.9 °F 1015.1 in Calm     75 % 0.0 in 5.0 W/m2 OVC
06:39 14.3 °F 9.8 °F 1015.1 in Calm     74 % 0.0 in 7.0 W/m2 BKN
06:44 14.3 °F 9.5 °F 1015.1 in Calm     73 % 0.0 in 9.0 W/m2 BKN
06:49 14.2 °F 9.4 °F 1015.1 in Calm     73 % 0.0 in 11.0 W/m2 BKN
06:54 14.1 °F 9.3 °F 1015.1 in Calm     73 % 0.0 in 12.0 W/m2 BKN
06:59 14.1 °F 9.5 °F 1015.1 in Calm     74 % 0.0 in 14.0 W/m2 BKN
07:04 14.1 °F 9.6 °F 1015.1 in Calm     74 % 0.0 in 18.0 W/m2 BKN
07:09 14.1 °F 9.3 °F 1015.5 in Calm     73 % 0.0 in 25.0 W/m2 BKN
07:14 14.1 °F 9.3 °F 1015.1 in Calm     73 % 0.0 in 37.0 W/m2 BKN
07:19 14.2 °F 9.7 °F 1015.5 in Calm     74 % 0.0 in 47.0 W/m2 SCT
07:24 14.4 °F 9.6 °F 1015.5 in Calm     73 % 0.0 in 58.0 W/m2 SCT
07:29 14.6 °F 9.8 °F 1015.5 in Calm     73 % 0.0 in 69.0 W/m2 FEW
07:34 14.9 °F 9.9 °F 1015.5 in Calm     72 % 0.0 in 84.0 W/m2 FEW
07:39 15.2 °F 10.2 °F 1015.5 in Calm     72 % 0.0 in 97.0 W/m2 FEW
07:44 15.6 °F 10.4 °F 1015.5 in Calm     71 % 0.0 in 111.0 W/m2 CLR
07:49 16.1 °F 10.8 °F 1015.5 in Calm     71 % 0.0 in 123.0 W/m2 CLR
07:54 16.6 °F 10.8 °F 1015.5 in Calm     69 % 0.0 in 142.0 W/m2 CLR
07:59 16.9 °F 10.8 °F 1015.5 in Calm     67 % 0.0 in 162.0 W/m2 CLR
08:04 17.3 °F 10.9 °F 1015.5 in Calm     66 % 0.0 in 176.0 W/m2 CLR
08:09 17.6 °F 11.2 °F 1015.8 in Calm     66 % 0.0 in 192.0 W/m2 CLR
08:14 17.8 °F 11.2 °F 1015.8 in Calm     65 % 0.0 in 211.0 W/m2 CLR
08:19 18.0 °F 11.3 °F 1015.8 in Calm     65 % 0.0 in 225.0 W/m2 CLR
08:24 18.4 °F 11.7 °F 1015.8 in Calm     65 % 0.0 in 241.0 W/m2 CLR
08:29 19.0 °F 12.3 °F 1015.8 in Calm     65 % 0.0 in 255.0 W/m2 CLR
08:34 19.5 °F 12.3 °F 1015.8 in Calm     63 % 0.0 in 269.0 W/m2 CLR
08:39 20.1 °F 12.3 °F 1015.8 in Calm     61 % 0.0 in 288.0 W/m2 CLR
08:44 20.4 °F 12.4 °F 1015.8 in Calm     60 % 0.0 in 302.0 W/m2 CLR
08:49 21.0 °F 12.7 °F 1015.8 in Calm     59 % 0.0 in 316.0 W/m2 CLR
08:54 21.3 °F 13.0 °F 1015.8 in Calm     59 % 0.0 in 330.0 W/m2 CLR
08:59 21.9 °F 13.5 °F 1015.8 in Calm     59 % 0.0 in 348.0 W/m2 CLR
09:04 22.4 °F 14.1 °F 1015.8 in Calm     59 % 0.0 in 364.0 W/m2 CLR
09:09 22.6 °F 14.4 °F 1015.8 in Calm     60 % 0.0 in 378.0 W/m2 CLR
09:14 22.8 °F 14.9 °F 1015.8 in Calm     61 % 0.0 in 394.0 W/m2 CLR
09:19 23.2 °F 14.9 °F 1015.8 in Calm     60 % 0.0 in 413.0 W/m2 CLR
09:24 23.5 °F 15.3 °F 1015.8 in Calm     60 % 0.0 in 427.0 W/m2 CLR
09:29 23.8 °F 15.1 °F 1015.8 in Calm     58 % 0.0 in 439.0 W/m2 CLR
09:34 24.1 °F 14.7 °F 1015.8 in Calm     56 % 0.0 in 457.0 W/m2 CLR
09:39 24.4 °F 14.5 °F 1015.8 in Calm     54 % 0.0 in 471.0 W/m2 CLR
09:44 24.8 °F 14.3 °F 1015.5 in Calm     52 % 0.0 in 485.0 W/m2 CLR
09:49 25.2 °F 14.4 °F 1015.8 in Calm     51 % 0.0 in 499.0 W/m2 CLR
09:54 25.4 °F 15.4 °F 1015.5 in Calm     54 % 0.0 in 517.0 W/m2 CLR
09:59 25.6 °F 15.8 °F 1015.5 in Calm     55 % 0.0 in 531.0 W/m2 CLR
10:04 25.9 °F 15.9 °F 1015.5 in Calm     54 % 0.0 in 545.0 W/m2 CLR
10:09 26.2 °F 15.8 °F 1015.5 in NE 5.6 mph 5.6 mph 53 % 0.0 in 557.0 W/m2 CLR
10:14 26.3 °F 16.2 °F 1015.5 in ENE 3.7 mph 3.7 mph 54 % 0.0 in 571.0 W/m2 CLR
10:19 26.2 °F 16.1 °F 1015.5 in NE 1.9 mph   54 % 0.0 in 584.0 W/m2 CLR
10:24 26.3 °F 16.3 °F 1015.5 in NNE 11.1 mph 11.1 mph 54 % 0.0 in 598.0 W/m2 CLR
10:29 26.4 °F 16.1 °F 1015.5 in NE 7.4 mph 7.4 mph 53 % 0.0 in 615.0 W/m2 CLR
10:34 26.7 °F 16.3 °F 1015.1 in ENE 11.1 mph 11.1 mph 53 % 0.0 in 629.0 W/m2 CLR
10:40 27.1 °F 16.1 °F 1015.1 in NE 11.1 mph 11.1 mph 51 % 0.0 in 640.0 W/m2 CLR
10:45 27.0 °F 16.0 °F 1015.1 in NE 5.6 mph 6.1 mph 51 % 0.0 in 652.0 W/m2 CLR
10:50 27.2 °F 15.9 °F 1015.1 in NE 7.4 mph 7.4 mph 50 % 0.0 in 668.0 W/m2 CLR
10:55 27.4 °F 16.1 °F 1015.1 in ENE 9.3 mph   50 % 0.0 in 679.0 W/m2 CLR
11:00 27.8 °F 15.8 °F 1015.1 in NE 13.0 mph 13.0 mph 48 % 0.0 in 691.0 W/m2 CLR
11:05 27.9 °F 15.6 °F 1015.1 in Calm     47 % 0.0 in 703.0 W/m2 CLR
11:10 28.1 °F 15.7 °F 1015.1 in North 8.0 mph 8.0 mph 47 % 0.0 in 715.0 W/m2 CLR
11:15 28.4 °F 15.7 °F 1015.1 in NNE 11.1 mph 11.1 mph 46 % 0.0 in 729.0 W/m2 CLR
11:20 28.4 °F 15.7 °F 1015.1 in ENE 14.8 mph 14.8 mph 46 % 0.0 in 740.0 W/m2 CLR
11:25 28.4 °F 16.1 °F 1014.8 in NE 13.0 mph 13.0 mph 47 % 0.0 in 749.0 W/m2 CLR
11:30 28.4 °F 15.7 °F 1014.8 in ENE 11.1 mph 11.1 mph 46 % 0.0 in 759.0 W/m2 CLR
11:35 28.4 °F 15.7 °F 1014.8 in NE 18.5 mph 18.5 mph 46 % 0.0 in 772.0 W/m2 CLR
11:40 28.4 °F 15.7 °F 1014.8 in ENE 16.7 mph 16.7 mph 46 % 0.0 in 780.0 W/m2 CLR
11:45 28.6 °F 15.8 °F 1014.8 in NNE 11.1 mph 11.1 mph 46 % 0.0 in 789.0 W/m2 CLR
11:50 28.8 °F 15.7 °F 1014.4 in NE 11.1 mph 11.1 mph 45 % 0.0 in 800.0 W/m2 CLR
11:55 28.8 °F 15.7 °F 1014.4 in NE 14.8 mph 14.8 mph 45 % 0.0 in 810.0 W/m2 CLR
12:00 29.0 °F 15.5 °F 1014.4 in NE 18.5 mph 18.5 mph 44 % 0.0 in 821.0 W/m2 CLR
12:05 29.1 °F 15.6 °F 1014.4 in NE 14.8 mph 14.8 mph 44 % 0.0 in 830.0 W/m2 CLR
12:10 29.4 °F 15.5 °F 1014.4 in East 14.8 mph 14.8 mph 43 % 0.0 in 837.0 W/m2 CLR
12:15 29.7 °F 15.8 °F 1014.8 in ENE 7.4 mph 7.4 mph 43 % 0.0 in 846.0 W/m2 CLR
12:20 29.8 °F 15.6 °F 1014.8 in ENE 9.3 mph 9.3 mph 42 % 0.0 in 856.0 W/m2 CLR
12:25 30.0 °F 15.7 °F 1014.4 in ENE 7.4 mph 7.4 mph 42 % 0.0 in 860.0 W/m2 CLR
12:30 30.2 °F 15.5 °F 1014.4 in ESE 9.3 mph 9.3 mph 41 % 0.0 in 867.0 W/m2 CLR
12:35 30.1 °F 15.7 °F 1014.4 in SE 14.5 mph 14.5 mph 42 % 0.0 in 874.0 W/m2 CLR
12:40 30.1 °F 15.7 °F 1014.4 in ESE 11.1 mph 11.1 mph 42 % 0.0 in 881.0 W/m2 CLR
12:45 30.3 °F 16.3 °F 1014.1 in ESE 13.0 mph 13.0 mph 43 % 0.0 in 886.0 W/m2 CLR
12:50 30.4 °F 16.1 °F 1014.1 in ESE 18.5 mph 18.5 mph 42 % 0.0 in 889.0 W/m2 CLR
12:55 30.4 °F 15.7 °F 1014.1 in East 6.4 mph 6.4 mph 41 % 0.0 in 896.0 W/m2 CLR
13:00 30.4 °F 15.7 °F 1014.1 in ESE 11.1 mph 11.1 mph 41 % 0.0 in 904.0 W/m2 CLR
13:05 30.6 °F 15.4 °F 1014.1 in SE 11.1 mph 11.1 mph 40 % 0.0 in 905.0 W/m2 CLR
13:10 30.8 °F 16.1 °F 1014.1 in ENE 7.4 mph 7.4 mph 41 % 0.0 in 905.0 W/m2 CLR
13:12 31.0 °F 15.4 °F 1014.1 in East 16.7 mph 16.7 mph 39 % 0.0 in 911.0 W/m2 CLR
13:17 31.1 °F 15.4 °F 1014.1 in SE 13.0 mph 13.0 mph 39 % 0.0 in 914.0 W/m2 CLR
13:22 30.8 °F 15.2 °F 1013.8 in SSE 13.0 mph   39 % 0.0 in 916.0 W/m2 CLR
13:27 31.1 °F 15.9 °F 1013.8 in East 13.0 mph 13.0 mph 40 % 0.0 in 916.0 W/m2 CLR
13:32 31.2 °F 15.9 °F 1013.8 in NE 9.3 mph 9.3 mph 40 % 0.0 in 919.0 W/m2 CLR
13:37 31.5 °F 16.7 °F 1013.8 in East 16.7 mph 16.7 mph 41 % 0.0 in 921.0 W/m2 CLR
13:42 31.4 °F 16.9 °F 1013.8 in SE 18.5 mph 18.5 mph 42 % 0.0 in 921.0 W/m2 CLR
13:47 31.3 °F 16.9 °F 1013.8 in ENE 18.5 mph 18.5 mph 42 % 0.0 in 928.0 W/m2 CLR
13:52 31.4 °F 17.3 °F 1013.8 in ESE 14.5 mph 14.5 mph 43 % 0.0 in 926.0 W/m2 CLR
13:57 31.5 °F 17.4 °F 1013.4 in ENE 7.4 mph 7.4 mph 43 % 0.0 in 930.0 W/m2 CLR
14:02 31.5 °F 17.4 °F 1013.4 in ENE 18.5 mph 18.5 mph 43 % 0.0 in 930.0 W/m2 CLR
14:07 31.7 °F 17.6 °F 1013.4 in ENE 18.5 mph 18.5 mph 43 % 0.0 in 928.0 W/m2 CLR
14:12 31.5 °F 17.8 °F 1013.4 in ESE 18.5 mph 18.5 mph 44 % 0.0 in 928.0 W/m2 CLR
14:17 31.7 °F 18.3 °F 1013.1 in ENE 18.5 mph 18.5 mph 45 % 0.0 in 930.0 W/m2 CLR
14:23 31.7 °F 17.9 °F 1013.1 in East 14.8 mph 14.8 mph 44 % 0.0 in 932.0 W/m2 CLR
14:28 31.6 °F 17.8 °F 1013.1 in ENE 18.5 mph 18.5 mph 44 % 0.0 in 930.0 W/m2 CLR
14:33 31.7 °F 18.3 °F 1013.1 in ESE 20.4 mph 20.4 mph 45 % 0.0 in 923.0 W/m2 CLR
14:38 31.6 °F 17.8 °F 1013.1 in East 22.2 mph 22.2 mph 44 % 0.0 in 921.0 W/m2 CLR
14:43 31.6 °F 18.2 °F 1013.1 in ENE 24.1 mph 24.1 mph 45 % 0.0 in 914.0 W/m2 CLR
14:48 31.4 °F 18.0 °F 1013.1 in ENE 24.1 mph 24.1 mph 45 % 0.0 in 918.0 W/m2 CLR
14:53 31.7 °F 17.9 °F 1013.1 in East 18.5 mph 18.5 mph 44 % 0.0 in 914.0 W/m2 CLR
14:58 31.9 °F 17.8 °F 1012.8 in East 22.2 mph 22.2 mph 43 % 0.0 in 907.0 W/m2 CLR
15:03 31.8 °F 18.1 °F 1012.8 in ENE 24.1 mph 24.1 mph 44 % 0.0 in 900.0 W/m2 CLR
15:08 31.9 °F 18.1 °F 1012.8 in East 24.1 mph 24.1 mph 44 % 0.0 in 898.0 W/m2 CLR
15:13 31.8 °F 18.1 °F 1012.4 in ENE 25.9 mph 25.9 mph 44 % 0.0 in 893.0 W/m2 CLR
15:18 31.8 °F 18.1 °F 1012.4 in East 25.9 mph 25.9 mph 44 % 0.0 in 889.0 W/m2 CLR
15:20 31.8 °F 18.1 °F 1012.4 in East 14.8 mph 14.8 mph 44 % 0.0 in 888.0 W/m2 CLR
15:25 32.1 °F 17.9 °F 1012.4 in ESE 22.2 mph 22.2 mph 43 % 0.0 in 884.0 W/m2 CLR
15:30 31.9 °F 18.2 °F 1012.4 in ESE 20.4 mph 20.4 mph 44 % 0.0 in 875.0 W/m2 CLR
15:35 31.7 °F 17.9 °F 1012.4 in ESE 22.2 mph 22.2 mph 44 % 0.0 in 874.0 W/m2 CLR
15:40 31.8 °F 18.1 °F 1012.4 in East 22.2 mph 22.2 mph 44 % 0.0 in 867.0 W/m2 CLR
15:45 31.6 °F 17.9 °F 1012.1 in ENE 25.9 mph 25.9 mph 44 % 0.0 in 858.0 W/m2 CLR
15:50 31.7 °F 17.9 °F 1012.4 in East 27.8 mph 27.8 mph 44 % 0.0 in 851.0 W/m2 CLR
15:55 31.7 °F 17.9 °F 1012.4 in ESE 29.6 mph 29.6 mph 44 % 0.0 in 842.0 W/m2 CLR
16:00 32.1 °F 17.9 °F 1012.1 in East 24.1 mph 24.1 mph 43 % 0.0 in 831.0 W/m2 CLR
16:05 31.9 °F 17.8 °F 1012.1 in East 18.5 mph 18.5 mph 43 % 0.0 in 823.0 W/m2 CLR
16:10 32.2 °F 17.3 °F 1012.1 in East 24.1 mph 24.1 mph 41 % 0.0 in 816.0 W/m2 CLR
16:15 32.3 °F 17.7 °F 1012.1 in East 24.1 mph 24.1 mph 42 % 0.0 in 807.0 W/m2 CLR
16:20 32.5 °F 17.9 °F 1011.7 in ESE 20.4 mph 20.4 mph 42 % 0.0 in 796.0 W/m2 CLR
16:25 32.6 °F 17.7 °F 1012.1 in East 24.1 mph 24.1 mph 41 % 0.0 in 788.0 W/m2 CLR
16:30 32.7 °F 16.9 °F 1012.1 in SE 22.2 mph 22.2 mph 39 % 0.0 in 777.0 W/m2 CLR
16:35 33.0 °F 16.8 °F 1011.7 in ESE 24.1 mph 24.1 mph 38 % 0.0 in 766.0 W/m2 CLR
16:40 32.8 °F 16.7 °F 1011.7 in SE 18.5 mph 18.5 mph 38 % 0.0 in 754.0 W/m2 CLR
16:45 32.7 °F 16.9 °F 1011.7 in SSE 25.9 mph 25.9 mph 39 % 0.0 in 745.0 W/m2 CLR
16:50 32.8 °F 17.0 °F 1011.7 in ESE 24.1 mph 24.1 mph 39 % 0.0 in 735.0 W/m2 CLR
16:55 32.8 °F 17.4 °F 1011.7 in East 27.8 mph 27.8 mph 40 % 0.0 in 724.0 W/m2 CLR
17:00 32.7 °F 17.3 °F 1011.7 in SE 29.6 mph 29.6 mph 40 % 0.0 in 710.0 W/m2 CLR
17:05 32.8 °F 17.0 °F 1012.1 in ESE 29.6 mph 29.6 mph 39 % 0.0 in 700.0 W/m2 CLR
17:10 32.6 °F 17.3 °F 1011.7 in SE 19.3 mph 19.3 mph 40 % 0.0 in 686.0 W/m2 CLR
17:15 32.6 °F 16.4 °F 1011.7 in SE 31.5 mph 31.5 mph 38 % 0.0 in 675.0 W/m2 CLR
17:20 32.6 °F 16.4 °F 1011.7 in SE 27.8 mph 27.8 mph 38 % 0.0 in 664.0 W/m2 CLR
17:25 32.3 °F 16.6 °F 1011.7 in SE 33.3 mph 33.3 mph 39 % 0.0 in 647.0 W/m2 CLR
17:30 32.5 °F 16.3 °F 1011.7 in SSE 22.2 mph 22.2 mph 38 % 0.0 in 635.0 W/m2 CLR
17:35 32.6 °F 16.0 °F 1011.7 in SSE 31.5 mph 31.5 mph 37 % 0.0 in 622.0 W/m2 CLR
17:40 32.2 °F 16.4 °F 1011.7 in SSE 31.5 mph 31.5 mph 39 % 0.0 in 610.0 W/m2 CLR
17:45 32.1 °F 16.8 °F 1011.7 in ESE 25.7 mph 25.7 mph 40 % 0.0 in 592.0 W/m2 CLR
17:50 31.7 °F 16.8 °F 1011.7 in ESE 27.8 mph 27.8 mph 41 % 0.0 in 582.0 W/m2 CLR
17:55 31.4 °F 17.0 °F 1011.7 in ESE 24.1 mph 24.1 mph 42 % 0.0 in 566.0 W/m2 CLR
18:00 31.4 °F 17.3 °F 1011.7 in ESE 24.1 mph 24.1 mph 43 % 0.0 in 555.0 W/m2 CLR
18:05 31.1 °F 17.4 °F 1011.7 in ESE 25.9 mph 25.9 mph 44 % 0.0 in 541.0 W/m2 CLR
18:10 30.9 °F 17.3 °F 1011.7 in SE 25.9 mph 25.9 mph 44 % 0.0 in 526.0 W/m2 CLR
18:15 30.5 °F 17.2 °F 1011.7 in ESE 24.1 mph 24.1 mph 45 % 0.0 in 510.0 W/m2 CLR
18:20 30.4 °F 17.4 °F 1011.7 in ESE 25.9 mph 25.9 mph 46 % 0.0 in 497.0 W/m2 CLR
18:25 30.3 °F 17.4 °F 1011.7 in SE 31.5 mph 31.5 mph 46 % 0.0 in 480.0 W/m2 CLR
18:31 30.0 °F 17.1 °F 1011.4 in ESE 31.5 mph 31.5 mph 46 % 0.0 in 462.0 W/m2 CLR
18:36 29.8 °F 16.9 °F 1011.4 in ESE 27.8 mph 27.8 mph 46 % 0.0 in 436.0 W/m2 CLR
18:41 29.8 °F 16.9 °F 1011.7 in SE 29.6 mph 29.6 mph 46 % 0.0 in 424.0 W/m2 CLR
18:46 30.0 °F 17.1 °F 1011.7 in SSE 22.5 mph 22.5 mph 46 % 0.0 in 410.0 W/m2 CLR
18:51 30.1 °F 16.8 °F 1011.4 in ESE 32.2 mph 32.2 mph 45 % 0.0 in 396.0 W/m2 CLR
18:56 29.7 °F 16.8 °F 1011.4 in SE 29.6 mph 29.6 mph 46 % 0.0 in 374.0 W/m2 CLR
19:01 29.6 °F 16.7 °F 1011.4 in ESE 29.6 mph 29.6 mph 46 % 0.0 in 360.0 W/m2 CLR
19:06 29.4 °F 16.9 °F 1011.4 in SSE 25.9 mph 25.9 mph 47 % 0.0 in 352.0 W/m2 CLR
19:11 29.4 °F 16.6 °F 1011.4 in SE 24.1 mph 24.1 mph 46 % 0.0 in 339.0 W/m2 CLR
19:16 29.3 °F 16.8 °F 1011.4 in ESE 24.1 mph 24.1 mph 47 % 0.0 in 325.0 W/m2 CLR
19:21 29.4 °F 16.9 °F 1011.4 in SE 25.9 mph 25.9 mph 47 % 0.0 in 313.0 W/m2 CLR
19:26 29.3 °F 16.8 °F 1011.4 in SE 18.5 mph 18.5 mph 47 % 0.0 in 301.0 W/m2 CLR
19:31 29.4 °F 16.9 °F 1011.4 in SE 20.4 mph 20.4 mph 47 % 0.0 in 283.0 W/m2 CLR
19:36 29.4 °F 16.9 °F 1011.4 in ESE 13.0 mph 13.0 mph 47 % 0.0 in 262.0 W/m2 CLR
19:41 29.3 °F 16.8 °F 1011.4 in ESE 18.5 mph 18.5 mph 47 % 0.0 in 262.0 W/m2 CLR
19:46 29.4 °F 16.6 °F 1011.4 in ESE 16.7 mph 16.7 mph 46 % 0.0 in 244.0 W/m2 CLR
19:51 29.4 °F 16.6 °F 1011.4 in ESE 18.5 mph 18.5 mph 46 % 0.0 in 221.0 W/m2 CLR
19:56 29.2 °F 16.4 °F 1011.4 in ESE 18.5 mph 18.5 mph 46 % 0.0 in 206.0 W/m2 CLR
20:01 29.1 °F 16.3 °F 1011.4 in ESE 19.3 mph 19.3 mph 46 % 0.0 in 186.0 W/m2 CLR
20:06 28.9 °F 16.1 °F 1011.4 in ESE 20.4 mph 20.4 mph 46 % 0.0 in 167.0 W/m2 CLR
20:11 28.8 °F 16.0 °F 1011.4 in SE 16.7 mph 16.7 mph 46 % 0.0 in 151.0 W/m2 CLR
20:16 28.8 °F 15.7 °F 1011.4 in ESE 7.4 mph 7.4 mph 45 % 0.0 in 135.0 W/m2 CLR
20:21 28.9 °F 15.8 °F 1011.7 in ESE 20.4 mph 20.4 mph 45 % 0.0 in 120.0 W/m2 CLR
20:26 28.8 °F 15.3 °F 1011.4 in SE 14.8 mph 14.8 mph 44 % 0.0 in 104.0 W/m2 CLR
20:31 28.7 °F 15.3 °F 1011.4 in ESE 18.5 mph 18.5 mph 44 % 0.0 in 91.0 W/m2 CLR
20:36 28.6 °F 15.2 °F 1011.4 in SE 19.3 mph 19.3 mph 44 % 0.0 in 79.0 W/m2 FEW
20:41 28.5 °F 15.1 °F 1011.4 in ESE 14.8 mph 14.8 mph 44 % 0.0 in 67.0 W/m2 FEW
20:46 28.4 °F 14.9 °F 1011.7 in ESE 9.3 mph 9.3 mph 44 % 0.0 in 58.0 W/m2 SCT
20:51 28.3 °F 15.6 °F 1011.7 in ESE 9.3 mph 9.3 mph 46 % 0.0 in 39.0 W/m2 BKN
20:56 27.9 °F 15.9 °F 1011.7 in ESE 11.1 mph 11.1 mph 48 % 0.0 in 39.0 W/m2 BKN
21:01 27.7 °F 16.0 °F 1011.7 in SE 19.3 mph 19.3 mph 49 % 0.0 in 32.0 W/m2 BKN
21:06 27.4 °F 15.8 °F 1011.7 in ESE 16.7 mph 16.7 mph 49 % 0.0 in 26.0 W/m2 BKN
21:11 27.3 °F 15.6 °F 1011.7 in ESE 16.7 mph 16.7 mph 49 % 0.0 in 21.0 W/m2 BKN
21:16 27.2 °F 15.9 °F 1011.7 in ESE 14.8 mph 14.8 mph 50 % 0.0 in 18.0 W/m2 BKN
21:21 27.1 °F 15.5 °F 1011.7 in SE 16.7 mph 16.7 mph 49 % 0.0 in 12.0 W/m2 BKN
21:26 27.1 °F 15.1 °F 1011.7 in SE 16.1 mph 16.1 mph 48 % 0.0 in 9.0 W/m2 BKN
21:31 26.9 °F 15.3 °F 1011.7 in SSE 18.5 mph 18.5 mph 49 % 0.0 in 5.0 W/m2 OVC
21:36 26.8 °F 15.2 °F 1011.7 in ESE 13.0 mph 13.0 mph 49 % 0.0 in 0.0 W/m2 OVC
21:41 26.6 °F 15.3 °F 1011.7 in East 5.6 mph 5.6 mph 50 % 0.0 in 0.0 W/m2 OVC
21:46 26.4 °F 15.5 °F 1011.7 in NE 8.0 mph 8.0 mph 51 % 0.0 in 0.0 W/m2 CLR
21:51 26.2 °F 15.6 °F 1011.7 in East 8.0 mph 8.0 mph 52 % 0.0 in 0.0 W/m2 CLR
21:56 26.0 °F 15.4 °F 1011.7 in Calm     52 % 0.0 in 0.0 W/m2 CLR
22:01 25.9 °F 15.3 °F 1012.1 in ESE 14.8 mph 14.8 mph 52 % 0.0 in 0.0 W/m2 CLR
22:06 25.9 °F 15.0 °F 1012.1 in ESE 9.3 mph 9.3 mph 51 % 0.0 in 0.0 W/m2 CLR
22:11 25.8 °F 14.9 °F 1012.4 in ESE 11.1 mph 11.1 mph 51 % 0.0 in 0.0 W/m2 CLR
22:16 25.9 °F 14.7 °F 1012.4 in ESE 5.6 mph 5.6 mph 50 % 0.0 in 0.0 W/m2 CLR
22:21 25.8 °F 14.6 °F 1012.4 in SE 9.3 mph 9.3 mph 50 % 0.0 in 0.0 W/m2 CLR
22:26 25.8 °F 14.6 °F 1012.8 in SE 9.3 mph 9.3 mph 50 % 0.0 in 0.0 W/m2 CLR
22:31 25.7 °F 14.2 °F 1012.8 in SE 5.6 mph 5.6 mph 49 % 0.0 in 0.0 W/m2 CLR
22:36 25.7 °F 14.2 °F 1012.8 in SE 7.4 mph 7.4 mph 49 % 0.0 in 0.0 W/m2 CLR
22:41 25.8 °F 13.9 °F 1012.8 in SSE 9.7 mph 9.7 mph 48 % 0.0 in 0.0 W/m2 CLR
22:46 25.9 °F 14.1 °F 1012.8 in SE 9.3 mph 9.3 mph 48 % 0.0 in 0.0 W/m2 CLR
22:51 25.9 °F 14.1 °F 1013.1 in SE 11.1 mph 11.1 mph 48 % 0.0 in 0.0 W/m2 CLR
22:56 25.8 °F 14.0 °F 1013.1 in Calm     48 % 0.0 in 0.0 W/m2 CLR
23:01 25.8 °F 14.3 °F 1013.1 in Calm     49 % 0.0 in 0.0 W/m2 CLR
23:06 25.8 °F 14.3 °F 1013.4 in Calm     49 % 0.0 in 0.0 W/m2 CLR
23:11 25.7 °F 14.2 °F 1013.4 in Calm     49 % 0.0 in 0.0 W/m2 CLR
23:16 25.7 °F 14.2 °F 1013.4 in Calm     49 % 0.0 in 0.0 W/m2 CLR
23:21 25.6 °F 14.4 °F 1013.4 in SSE 7.4 mph 7.4 mph 50 % 0.0 in 0.0 W/m2 CLR
23:26 25.5 °F 14.6 °F 1013.4 in Calm     51 % 0.0 in 0.0 W/m2 CLR
23:31 25.4 °F 14.6 °F 1013.8 in Calm     51 % 0.0 in 0.0 W/m2 CLR
23:36 25.3 °F 14.8 °F 1013.8 in SSW 5.6 mph   52 % 0.0 in 0.0 W/m2 CLR
23:37 25.3 °F 14.8 °F 1013.8 in South 5.6 mph 5.6 mph 52 % 0.0 in 0.0 W/m2 CLR
23:42 25.3 °F 14.7 °F 1014.1 in South 3.7 mph 3.7 mph 52 % 0.0 in 0.0 W/m2 CLR
23:47 25.2 °F 14.6 °F 1014.4 in South 9.7 mph 9.7 mph 52 % 0.0 in 0.0 W/m2 CLR
23:52 25.2 °F 14.6 °F 1014.4 in SSE 12.9 mph 12.9 mph 52 % 0.0 in 0.0 W/m2 CLR
23:57 25.1 °F 14.8 °F 1014.4 in SE 12.9 mph 12.9 mph 53 % 0.0 in 0.0 W/m2 CLR
Lo Temps de Massalio
Compliments of Weather Underground - 1.25 mb